createdAt,value
2023-06-02T00:01:35.058Z,21.88
2023-06-02T00:04:03.709Z,21.84
2023-06-02T00:06:35.748Z,21.81
2023-06-02T00:09:06.429Z,21.79
2023-06-02T00:11:38.104Z,21.76
2023-06-02T00:14:07.010Z,21.76
2023-06-02T00:16:43.049Z,21.76
2023-06-02T00:19:13.775Z,21.80
2023-06-02T00:21:42.660Z,21.86
2023-06-02T00:24:09.879Z,21.92
2023-06-02T00:26:36.689Z,22.00
2023-06-02T00:29:03.756Z,22.04
2023-06-02T00:31:31.198Z,22.03
2023-06-02T00:33:58.092Z,21.98
2023-06-02T00:36:24.947Z,21.97
2023-06-02T00:38:51.747Z,21.99
2023-06-02T00:41:18.737Z,22.01
2023-06-02T00:43:45.557Z,22.04
2023-06-02T00:46:12.527Z,22.06
2023-06-02T00:48:39.993Z,22.08
2023-06-02T00:51:07.195Z,22.10
2023-06-02T00:53:34.101Z,22.12
2023-06-02T00:56:02.020Z,22.12
2023-06-02T00:58:30.034Z,22.13
2023-06-02T01:00:57.024Z,22.14
2023-06-02T01:03:26.075Z,22.16
2023-06-02T01:05:57.024Z,22.17
2023-06-02T01:08:25.976Z,22.18
2023-06-02T01:10:53.720Z,22.19
2023-06-02T01:13:20.972Z,22.19
2023-06-02T01:15:47.763Z,22.18
2023-06-02T01:18:18.058Z,22.17
2023-06-02T01:20:50.605Z,22.14
2023-06-02T01:23:24.813Z,22.10
2023-06-02T01:25:54.791Z,22.08
2023-06-02T01:28:22.376Z,22.06
2023-06-02T01:31:01.265Z,22.03
2023-06-02T01:33:34.526Z,21.98
2023-06-02T01:36:02.101Z,21.93
2023-06-02T01:38:32.124Z,21.85
2023-06-02T01:41:04.229Z,21.80
2023-06-02T01:43:33.666Z,21.74
2023-06-02T01:46:02.112Z,21.70
2023-06-02T01:48:32.727Z,21.69
2023-06-02T01:50:59.531Z,21.70
2023-06-02T01:53:27.986Z,21.73
2023-06-02T01:55:56.137Z,21.75
2023-06-02T01:58:23.469Z,21.76
2023-06-02T02:00:50.386Z,21.78
2023-06-02T02:03:19.236Z,21.79
2023-06-02T02:05:46.426Z,21.79
2023-06-02T02:08:13.843Z,21.77
2023-06-02T02:10:40.980Z,21.72
2023-06-02T02:13:07.753Z,21.68
2023-06-02T02:15:35.526Z,21.66
2023-06-02T02:18:04.479Z,21.63
2023-06-02T02:20:32.221Z,21.62
2023-06-02T02:22:59.411Z,21.61
2023-06-02T02:25:26.225Z,21.59
2023-06-02T02:27:53.011Z,21.58
2023-06-02T02:30:19.792Z,21.53
2023-06-02T02:32:48.323Z,21.50
2023-06-02T02:35:15.312Z,21.46
2023-06-02T02:37:47.401Z,21.45
2023-06-02T02:40:24.178Z,21.45
2023-06-02T02:42:51.000Z,21.45
2023-06-02T02:45:17.915Z,21.43
2023-06-02T02:47:46.056Z,21.41
2023-06-02T02:50:13.181Z,21.37
2023-06-02T02:52:41.606Z,21.34
2023-06-02T02:55:08.736Z,21.31
2023-06-02T02:57:35.596Z,21.30
2023-06-02T03:00:02.949Z,21.29
2023-06-02T03:02:32.516Z,21.26
2023-06-02T03:05:03.513Z,21.25
2023-06-02T03:07:31.371Z,21.23
2023-06-02T03:09:58.316Z,21.23
2023-06-02T03:12:25.590Z,21.23
2023-06-02T03:14:53.535Z,21.22
2023-06-02T03:17:21.426Z,21.20
2023-06-02T03:19:48.270Z,21.12
2023-06-02T03:22:15.347Z,21.05
2023-06-02T03:24:42.753Z,21.03
2023-06-02T03:27:14.924Z,21.01
2023-06-02T03:29:45.624Z,20.97
2023-06-02T03:32:14.461Z,20.90
2023-06-02T03:34:41.436Z,20.86
2023-06-02T03:37:09.052Z,20.82
2023-06-02T03:39:36.106Z,20.78
2023-06-02T03:42:03.085Z,20.74
2023-06-02T03:44:30.105Z,20.72
2023-06-02T03:46:57.480Z,20.69
2023-06-02T03:49:28.373Z,20.66
2023-06-02T03:51:55.589Z,20.61
2023-06-02T03:54:22.401Z,20.60
2023-06-02T03:56:50.905Z,20.64
2023-06-02T03:59:17.732Z,20.66
2023-06-02T04:01:44.751Z,20.64
2023-06-02T04:04:13.424Z,20.61
2023-06-02T04:06:44.497Z,20.60
2023-06-02T04:09:13.364Z,20.56
2023-06-02T04:11:41.988Z,20.51
2023-06-02T04:14:09.822Z,20.47
2023-06-02T04:16:37.754Z,20.49
2023-06-02T04:19:06.746Z,20.52
2023-06-02T04:21:34.290Z,20.50
2023-06-02T04:24:01.251Z,20.50
2023-06-02T04:26:28.162Z,20.52
2023-06-02T04:28:55.001Z,20.52
2023-06-02T04:31:28.119Z,20.55
2023-06-02T04:33:57.483Z,20.61
2023-06-02T04:36:24.610Z,20.65
2023-06-02T04:38:52.414Z,20.64
2023-06-02T04:41:19.147Z,20.66
2023-06-02T04:43:46.026Z,20.69
2023-06-02T04:46:13.484Z,20.72
2023-06-02T04:48:43.644Z,20.75
2023-06-02T04:51:10.555Z,20.79
2023-06-02T04:53:39.125Z,20.85
2023-06-02T04:56:07.088Z,20.89
2023-06-02T04:58:34.736Z,20.95
2023-06-02T05:01:03.524Z,21.03
2023-06-02T05:03:31.043Z,21.11
2023-06-02T05:05:58.029Z,21.15
2023-06-02T05:08:25.128Z,21.20
2023-06-02T05:10:51.959Z,21.28
2023-06-02T05:13:19.150Z,21.34
2023-06-02T05:15:47.688Z,21.43
2023-06-02T05:18:15.989Z,21.61
2023-06-02T05:20:44.152Z,21.86
2023-06-02T05:23:11.411Z,22.15
2023-06-02T05:25:40.292Z,22.43
2023-06-02T05:28:07.133Z,22.68
2023-06-02T05:30:35.446Z,22.92
2023-06-02T05:33:02.403Z,23.14
2023-06-02T05:35:29.320Z,23.33
2023-06-02T05:37:57.196Z,23.55
2023-06-02T05:40:24.198Z,23.75
2023-06-02T05:42:51.411Z,23.97
2023-06-02T05:45:19.147Z,24.15
2023-06-02T05:47:49.534Z,24.23
2023-06-02T05:50:17.348Z,24.32
2023-06-02T05:52:44.297Z,24.39
2023-06-02T05:55:11.311Z,24.45
2023-06-02T05:57:38.704Z,24.54
2023-06-02T06:00:09.433Z,24.59
2023-06-02T06:02:42.023Z,24.65
2023-06-02T06:05:10.766Z,24.69
2023-06-02T06:07:38.226Z,24.71
2023-06-02T06:10:05.261Z,24.75
2023-06-02T06:12:32.456Z,24.81
2023-06-02T06:14:59.330Z,24.89
2023-06-02T06:17:26.137Z,24.97
2023-06-02T06:19:52.884Z,25.09
2023-06-02T06:22:19.679Z,25.25
2023-06-02T06:24:46.550Z,25.43
2023-06-02T06:27:13.689Z,25.61
2023-06-02T06:29:40.569Z,25.80
2023-06-02T06:32:07.998Z,26.00
2023-06-02T06:34:35.123Z,26.18
2023-06-02T06:37:01.966Z,26.33
2023-06-02T06:39:28.952Z,26.48
2023-06-02T06:41:55.702Z,26.64
2023-06-02T06:44:31.903Z,26.83
2023-06-02T06:46:59.457Z,26.99
2023-06-02T06:49:26.656Z,27.20
2023-06-02T06:51:53.395Z,27.38
2023-06-02T06:54:20.583Z,27.55
2023-06-02T06:56:47.406Z,27.71
2023-06-02T06:59:14.380Z,27.85
2023-06-02T07:01:41.331Z,27.97
2023-06-02T07:04:08.641Z,28.11
2023-06-02T07:06:37.943Z,28.26
2023-06-02T07:09:05.021Z,28.40
2023-06-02T07:11:31.788Z,28.57
2023-06-02T07:14:14.596Z,28.71
2023-06-02T07:16:47.292Z,28.85
2023-06-02T07:19:14.304Z,29.01
2023-06-02T07:21:41.315Z,29.17
2023-06-02T07:24:08.201Z,29.26
2023-06-02T07:26:35.094Z,29.36
2023-06-02T07:29:01.906Z,29.50
2023-06-02T07:31:28.794Z,29.62
2023-06-02T07:33:55.628Z,29.71
2023-06-02T07:36:22.562Z,29.78
2023-06-02T07:38:49.358Z,29.91
2023-06-02T07:41:16.216Z,30.04
2023-06-02T07:43:43.009Z,30.16
2023-06-02T07:46:10.304Z,30.26
2023-06-02T07:48:37.511Z,30.38
2023-06-02T07:51:04.456Z,30.52
2023-06-02T07:53:31.515Z,30.66
2023-06-02T07:55:58.420Z,30.77
2023-06-02T07:58:28.923Z,30.84
2023-06-02T08:00:55.915Z,30.89
2023-06-02T08:03:22.934Z,30.93
2023-06-02T08:05:50.028Z,31.03
2023-06-02T08:08:16.813Z,31.14
2023-06-02T08:10:44.114Z,31.24
2023-06-02T08:13:12.407Z,31.28
2023-06-02T08:15:39.437Z,31.37
2023-06-02T08:22:27.372Z,31.49
2023-06-02T08:24:56.431Z,31.50
2023-06-02T08:27:23.314Z,31.51
2023-06-02T08:29:54.644Z,31.53
2023-06-02T08:32:26.827Z,31.57
2023-06-02T08:34:57.961Z,31.62
2023-06-02T08:37:26.064Z,31.67
2023-06-02T08:39:52.825Z,31.73
2023-06-02T08:42:21.342Z,31.82
2023-06-02T08:44:49.229Z,31.98
2023-06-02T08:47:19.429Z,32.11
2023-06-02T08:49:47.352Z,32.13
2023-06-02T08:52:20.085Z,32.16
2023-06-02T08:54:47.460Z,32.22
2023-06-02T08:57:17.403Z,32.29
2023-06-02T08:59:47.836Z,32.35
2023-06-02T09:02:16.529Z,32.38
2023-06-02T09:04:44.165Z,32.45
2023-06-02T09:07:14.083Z,32.65
2023-06-02T09:09:44.802Z,32.87
2023-06-02T09:12:12.100Z,33.06
2023-06-02T09:14:40.233Z,33.23
2023-06-02T09:17:39.791Z,33.35
2023-06-02T09:20:11.970Z,33.50
2023-06-02T09:22:59.061Z,33.69
2023-06-02T09:25:28.532Z,33.77
2023-06-02T09:27:57.521Z,33.89
2023-06-02T09:30:26.119Z,33.95
2023-06-02T09:33:01.157Z,33.93
2023-06-02T09:35:44.309Z,33.97
2023-06-02T09:38:13.548Z,34.10
2023-06-02T09:40:42.284Z,34.18
2023-06-02T09:43:11.569Z,34.25
2023-06-02T09:45:50.832Z,34.26
2023-06-02T09:52:24.744Z,34.50
2023-06-02T09:54:51.498Z,34.62
2023-06-02T09:57:18.550Z,34.73
2023-06-02T09:59:46.694Z,34.79
2023-06-02T10:02:14.804Z,34.86
2023-06-02T10:04:41.741Z,34.97
2023-06-02T10:07:21.971Z,35.07
2023-06-02T10:09:57.874Z,35.25
2023-06-02T10:12:52.514Z,35.37
2023-06-02T10:15:50.634Z,35.46
2023-06-02T10:18:38.971Z,35.45
2023-06-02T10:21:25.491Z,35.21
2023-06-02T10:28:13.968Z,34.81
2023-06-02T10:30:41.026Z,34.62
2023-06-02T10:33:09.406Z,34.59
2023-06-02T10:36:02.534Z,34.59
2023-06-02T10:38:33.278Z,34.40
2023-06-02T10:41:01.322Z,34.10
2023-06-02T10:43:28.472Z,33.72
2023-06-02T10:46:22.425Z,33.13
2023-06-02T10:48:50.626Z,32.38
2023-06-02T10:51:18.115Z,31.74
2023-06-02T10:54:00.352Z,31.21
2023-06-02T10:56:36.382Z,30.55
2023-06-02T10:59:04.453Z,29.84
2023-06-02T11:01:57.523Z,29.20
2023-06-02T11:04:34.863Z,28.63
2023-06-02T11:07:19.796Z,28.28
2023-06-02T11:09:48.888Z,27.91
2023-06-02T11:12:16.636Z,27.67
2023-06-02T11:15:02.436Z,27.45
2023-06-02T11:17:31.825Z,27.31
2023-06-02T11:19:59.367Z,27.23
2023-06-02T11:22:28.940Z,27.19
2023-06-02T11:24:56.669Z,27.08
2023-06-02T11:27:38.137Z,26.90
2023-06-02T11:30:12.130Z,26.81
2023-06-02T11:32:40.102Z,26.68
2023-06-02T11:35:09.093Z,26.58
2023-06-02T11:37:42.151Z,26.55
2023-06-02T11:40:11.825Z,26.48
2023-06-02T11:42:44.732Z,26.53
2023-06-02T11:45:26.244Z,26.59
2023-06-02T11:48:02.766Z,26.60
2023-06-02T11:50:31.004Z,26.57
2023-06-02T11:52:58.481Z,26.54
2023-06-02T11:55:35.919Z,26.48
2023-06-02T11:58:28.060Z,26.45
2023-06-02T12:01:06.691Z,26.40
2023-06-02T12:03:34.092Z,26.34
2023-06-02T12:06:10.183Z,26.39
2023-06-02T12:08:37.071Z,26.41
2023-06-02T12:11:04.534Z,26.45
2023-06-02T12:13:32.807Z,26.53
2023-06-02T12:16:21.090Z,26.61
2023-06-02T12:18:49.193Z,26.69
2023-06-02T12:21:25.189Z,26.77
2023-06-02T12:23:53.396Z,26.83
2023-06-02T12:26:20.614Z,26.87
2023-06-02T12:28:47.865Z,26.86
2023-06-02T12:31:19.992Z,26.94
2023-06-02T12:33:46.981Z,27.04
2023-06-02T12:36:14.425Z,27.13
2023-06-02T12:38:42.518Z,27.23
2023-06-02T12:41:13.156Z,27.36
2023-06-02T12:43:42.238Z,27.46
2023-06-02T12:46:12.816Z,27.54
2023-06-02T12:48:40.885Z,27.63
2023-06-02T12:51:08.776Z,27.76
2023-06-02T12:53:36.630Z,27.87
2023-06-02T12:56:05.277Z,27.99
2023-06-02T12:58:32.359Z,28.14
2023-06-02T13:00:59.135Z,28.28
2023-06-02T13:03:26.295Z,28.46
2023-06-02T13:05:58.299Z,28.63
2023-06-02T13:12:19.178Z,29.01
2023-06-02T13:14:45.945Z,29.15
2023-06-02T13:17:13.200Z,29.31
2023-06-02T13:19:42.748Z,29.44
2023-06-02T13:22:09.718Z,29.62
2023-06-02T13:24:36.860Z,29.82
2023-06-02T13:27:04.164Z,30.03
2023-06-02T13:29:31.048Z,30.23
2023-06-02T13:31:58.879Z,30.44
2023-06-02T13:34:25.790Z,30.64
2023-06-02T13:36:52.563Z,30.82
2023-06-02T13:39:19.438Z,31.02
2023-06-02T13:41:46.543Z,31.20
2023-06-02T13:44:21.006Z,31.36
2023-06-02T13:46:48.695Z,31.52
2023-06-02T13:49:17.995Z,31.65
2023-06-02T13:51:47.253Z,31.73
2023-06-02T13:54:15.339Z,31.82
2023-06-02T13:56:42.065Z,31.85
2023-06-02T14:03:23.139Z,31.99
2023-06-02T14:05:50.997Z,31.92
2023-06-02T14:08:18.854Z,31.89
2023-06-02T14:10:45.814Z,31.95
2023-06-02T14:13:12.731Z,32.07
2023-06-02T14:15:39.664Z,32.17
2023-06-02T14:22:26.314Z,32.36
2023-06-02T14:24:53.104Z,32.41
2023-06-02T14:27:19.821Z,32.45
2023-06-02T14:29:46.646Z,32.51
2023-06-02T14:32:13.465Z,32.57
2023-06-02T14:34:40.393Z,32.63
2023-06-02T14:37:09.136Z,32.60
2023-06-02T14:39:37.268Z,32.56
2023-06-02T14:42:04.389Z,32.61
2023-06-02T14:44:31.444Z,32.70
2023-06-02T14:46:58.293Z,32.75
2023-06-02T14:49:25.156Z,32.76
2023-06-02T14:51:52.009Z,32.77
2023-06-02T14:58:26.994Z,32.73
2023-06-02T15:00:55.313Z,32.62
2023-06-02T15:03:22.326Z,32.53
2023-06-02T15:05:49.262Z,32.45
2023-06-02T15:08:16.217Z,32.31
2023-06-02T15:10:43.446Z,32.09
2023-06-02T15:13:10.393Z,31.87
2023-06-02T15:15:37.303Z,31.74
2023-06-02T15:18:04.669Z,31.65
2023-06-02T15:20:31.717Z,31.52
2023-06-02T15:22:58.560Z,31.39
2023-06-02T15:25:25.434Z,31.24
2023-06-02T15:27:52.209Z,31.19
2023-06-02T15:30:19.072Z,31.13
2023-06-02T15:32:45.994Z,31.07
2023-06-02T15:35:13.879Z,31.02
2023-06-02T15:37:40.830Z,31.01
2023-06-02T15:40:08.669Z,30.98
2023-06-02T15:42:35.429Z,30.95
2023-06-02T15:45:03.490Z,30.90
2023-06-02T15:47:30.258Z,30.83
2023-06-02T15:50:00.615Z,30.80
2023-06-02T15:52:27.322Z,30.76
2023-06-02T15:54:54.615Z,30.73
2023-06-02T15:57:21.967Z,30.69
2023-06-02T15:59:48.730Z,30.61
2023-06-02T16:02:15.528Z,30.46
2023-06-02T16:04:42.422Z,30.39
2023-06-02T16:07:09.282Z,30.36
2023-06-02T16:09:36.207Z,30.32
2023-06-02T16:12:03.056Z,30.25
2023-06-02T16:14:29.899Z,30.14
2023-06-02T16:16:57.720Z,29.99
2023-06-02T16:19:24.676Z,29.90
2023-06-02T16:21:51.461Z,29.82
2023-06-02T16:24:18.269Z,29.77
2023-06-02T16:26:45.102Z,29.72
2023-06-02T16:29:13.319Z,29.69
2023-06-02T16:31:40.236Z,29.68
2023-06-02T16:34:07.073Z,29.66
2023-06-02T16:36:34.104Z,29.61
2023-06-02T16:39:00.968Z,29.55
2023-06-02T16:41:28.261Z,29.53
2023-06-02T16:43:55.150Z,29.54
2023-06-02T16:46:22.054Z,29.53
2023-06-02T16:48:48.931Z,29.54
2023-06-02T16:51:15.682Z,29.54
2023-06-02T16:53:42.555Z,29.55
2023-06-02T16:56:09.280Z,29.56
2023-06-02T16:58:36.838Z,29.57
2023-06-02T17:01:04.216Z,29.59
2023-06-02T17:07:58.241Z,29.58
2023-06-02T17:10:25.090Z,29.55
2023-06-02T17:12:52.250Z,29.53
2023-06-02T17:15:19.280Z,29.50
2023-06-02T17:20:38.254Z,29.43
2023-06-02T17:23:05.055Z,29.41
2023-06-02T17:25:31.885Z,29.38
2023-06-02T17:27:58.878Z,29.36
2023-06-02T17:30:25.898Z,29.33
2023-06-02T17:32:52.695Z,29.32
2023-06-02T17:35:19.362Z,29.30
2023-06-02T17:37:46.146Z,29.27
2023-06-02T17:40:12.896Z,29.23
2023-06-02T17:42:41.298Z,29.16
2023-06-02T17:45:08.501Z,29.08
2023-06-02T17:47:35.450Z,28.90
2023-06-02T17:50:02.219Z,28.66
2023-06-02T17:52:29.174Z,28.44
2023-06-02T17:54:56.532Z,28.23
2023-06-02T17:57:23.391Z,27.99
2023-06-02T17:59:52.009Z,27.79
2023-06-02T18:02:19.589Z,27.63
2023-06-02T18:04:47.989Z,27.50
2023-06-02T18:07:14.844Z,27.42
2023-06-02T18:09:41.765Z,27.34
2023-06-02T18:12:09.664Z,27.27
2023-06-02T18:14:36.682Z,27.17
2023-06-02T18:17:04.185Z,27.07
2023-06-02T18:19:31.299Z,26.97
2023-06-02T18:21:58.551Z,26.87
2023-06-02T18:24:25.379Z,26.80
2023-06-02T18:26:52.463Z,26.74
2023-06-02T18:29:19.258Z,26.71
2023-06-02T18:31:46.488Z,26.63
2023-06-02T18:34:13.387Z,26.56
2023-06-02T18:36:40.128Z,26.55
2023-06-02T18:39:07.080Z,26.55
2023-06-02T18:41:34.561Z,26.55
2023-06-02T18:44:01.576Z,26.53
2023-06-02T18:46:29.119Z,26.52
2023-06-02T18:48:56.057Z,26.49
2023-06-02T18:51:22.802Z,26.34
2023-06-02T18:53:49.680Z,26.20
2023-06-02T18:56:16.431Z,26.09
2023-06-02T18:58:43.174Z,26.03
2023-06-02T19:01:10.090Z,25.93
2023-06-02T19:03:37.096Z,25.79
2023-06-02T19:06:06.348Z,25.72
2023-06-02T19:08:33.619Z,25.68
2023-06-02T19:11:00.449Z,25.63
2023-06-02T19:13:27.260Z,25.50
2023-06-02T19:15:53.993Z,25.33
2023-06-02T19:18:20.863Z,25.18
2023-06-02T19:20:47.617Z,25.02
2023-06-02T19:23:14.497Z,24.91
2023-06-02T19:25:41.358Z,24.83
2023-06-02T19:28:08.162Z,24.73
2023-06-02T19:30:35.012Z,24.64
2023-06-02T19:33:03.082Z,24.56
2023-06-02T19:35:29.973Z,24.49
2023-06-02T19:38:15.439Z,24.43
2023-06-02T19:40:42.119Z,24.34
2023-06-02T19:43:08.873Z,24.30
2023-06-02T19:45:36.314Z,24.33
2023-06-02T19:48:03.772Z,24.43
2023-06-02T19:50:30.544Z,24.55
2023-06-02T19:52:57.280Z,24.63
2023-06-02T19:55:26.607Z,24.69
2023-06-02T19:57:54.432Z,24.71
2023-06-02T20:00:21.313Z,24.72
2023-06-02T20:02:48.353Z,24.71
2023-06-02T20:05:15.373Z,24.69
2023-06-02T20:07:43.068Z,24.64
2023-06-02T20:10:11.353Z,24.60
2023-06-02T20:12:38.602Z,24.53
2023-06-02T20:15:06.695Z,24.45
2023-06-02T20:17:33.548Z,24.39
2023-06-02T20:20:00.596Z,24.35
2023-06-02T20:22:27.650Z,24.29
2023-06-02T20:24:55.480Z,24.23
2023-06-02T20:27:22.349Z,24.19
2023-06-02T20:29:49.099Z,24.15
2023-06-02T20:36:16.508Z,24.02
2023-06-02T20:38:45.169Z,23.99
2023-06-02T20:41:16.980Z,23.98
2023-06-02T20:43:43.964Z,24.02
2023-06-02T20:46:10.911Z,24.06
2023-06-02T20:48:38.313Z,24.14
2023-06-02T20:51:05.149Z,24.22
2023-06-02T20:53:31.956Z,24.27
2023-06-02T20:55:59.158Z,24.31
2023-06-02T20:58:25.920Z,24.35
2023-06-02T21:00:53.853Z,24.41
2023-06-02T21:03:20.683Z,24.46
2023-06-02T21:05:47.541Z,24.52
2023-06-02T21:08:14.285Z,24.58
2023-06-02T21:10:41.102Z,24.62
2023-06-02T21:13:07.875Z,24.64
2023-06-02T21:15:36.522Z,24.67
2023-06-02T21:18:04.306Z,24.64
2023-06-02T21:20:32.405Z,24.56
2023-06-02T21:22:59.287Z,24.40
2023-06-02T21:25:26.099Z,24.20
2023-06-02T21:27:52.947Z,24.00
2023-06-02T21:30:21.925Z,23.81
2023-06-02T21:32:49.177Z,23.70
2023-06-02T21:35:17.561Z,23.66
2023-06-02T21:37:45.518Z,23.67
2023-06-02T21:40:12.460Z,23.63
2023-06-02T21:42:39.189Z,23.48
2023-06-02T21:45:06.982Z,23.31
2023-06-02T21:47:34.967Z,23.16
2023-06-02T21:50:01.877Z,23.03
2023-06-02T21:52:28.704Z,22.91
2023-06-02T21:54:55.657Z,22.83
2023-06-02T21:57:23.537Z,22.75
2023-06-02T21:59:50.827Z,22.68
2023-06-02T22:02:19.436Z,22.55
2023-06-02T22:04:46.951Z,22.45
2023-06-02T22:07:13.848Z,22.43
2023-06-02T22:09:41.204Z,22.41
2023-06-02T22:12:08.553Z,22.33
2023-06-02T22:14:36.428Z,22.22
2023-06-02T22:17:03.152Z,22.16
2023-06-02T22:19:30.019Z,22.06
2023-06-02T22:21:56.759Z,22.02
2023-06-02T22:24:27.867Z,21.99
2023-06-02T22:26:56.391Z,21.91
2023-06-02T22:29:23.388Z,21.89
2023-06-02T22:31:50.764Z,21.87
2023-06-02T22:34:18.246Z,21.82
2023-06-02T22:36:46.067Z,21.73
2023-06-02T22:39:12.823Z,21.67
2023-06-02T22:41:39.531Z,21.61
2023-06-02T22:44:06.251Z,21.59
2023-06-02T22:46:33.036Z,21.58
2023-06-02T22:48:59.781Z,21.48
2023-06-02T22:51:26.593Z,21.42
2023-06-02T22:53:53.322Z,21.44
2023-06-02T22:56:20.058Z,21.43
2023-06-02T22:58:46.845Z,21.40
2023-06-02T23:01:13.681Z,21.39
2023-06-02T23:03:40.514Z,21.34
2023-06-02T23:06:08.580Z,21.26
2023-06-02T23:08:37.113Z,21.24
2023-06-02T23:11:04.447Z,21.25
2023-06-02T23:13:31.407Z,21.28
2023-06-02T23:15:58.074Z,21.28
2023-06-02T23:18:24.815Z,21.27
2023-06-02T23:20:51.623Z,21.19
2023-06-02T23:23:18.510Z,21.12
2023-06-02T23:25:45.369Z,21.08
2023-06-02T23:28:12.470Z,21.08
2023-06-02T23:30:39.250Z,21.12
2023-06-02T23:33:06.601Z,21.18
2023-06-02T23:35:33.509Z,21.25
2023-06-02T23:38:00.472Z,21.31
2023-06-02T23:40:27.275Z,21.34
2023-06-02T23:43:07.860Z,21.33
2023-06-02T23:45:34.873Z,21.34
2023-06-02T23:48:03.650Z,21.36
2023-06-02T23:50:30.782Z,21.34
2023-06-02T23:52:57.478Z,21.36
2023-06-02T23:55:24.332Z,21.36
2023-06-02T23:57:51.192Z,21.35
